sensor_id;sensor_type;location;lat;lon;timestamp;pressure;altitude;pressure_sealevel;temperature;humidity
967;BME280;56108;48.730;9.304;2023-04-15T00:00:51;96564.25;;;4.19;100.00
967;BME280;56108;48.730;9.304;2023-04-15T00:03:02;96559.53;;;4.10;100.00
967;BME280;56108;48.730;9.304;2023-04-15T00:05:10;96563.22;;;4.07;100.00
967;BME280;56108;48.730;9.304;2023-04-15T00:07:18;96566.03;;;4.04;100.00
967;BME280;56108;48.730;9.304;2023-04-15T00:09:26;96559.63;;;4.23;100.00
967;BME280;56108;48.730;9.304;2023-04-15T00:11:34;96554.94;;;4.42;100.00
967;BME280;56108;48.730;9.304;2023-04-15T00:13:42;96556.28;;;4.49;100.00
967;BME280;56108;48.730;9.304;2023-04-15T00:15:51;96559.06;;;4.32;100.00
967;BME280;56108;48.730;9.304;2023-04-15T00:17:59;96558.16;;;4.18;100.00
967;BME280;56108;48.730;9.304;2023-04-15T00:20:10;96555.78;;;4.14;100.00
967;BME280;56108;48.730;9.304;2023-04-15T00:22:19;96552.88;;;4.04;100.00
967;BME280;56108;48.730;9.304;2023-04-15T00:24:27;96564.19;;;3.90;100.00
967;BME280;56108;48.730;9.304;2023-04-15T00:26:36;96554.31;;;3.80;100.00
967;BME280;56108;48.730;9.304;2023-04-15T00:28:44;96551.78;;;3.78;100.00
967;BME280;56108;48.730;9.304;2023-04-15T00:30:52;96545.88;;;3.89;100.00
967;BME280;56108;48.730;9.304;2023-04-15T00:33:01;96547.78;;;3.87;100.00
967;BME280;56108;48.730;9.304;2023-04-15T00:35:13;96550.59;;;3.98;100.00
967;BME280;56108;48.730;9.304;2023-04-15T00:37:21;96553.50;;;3.93;100.00
967;BME280;56108;48.730;9.304;2023-04-15T00:39:29;96549.91;;;3.80;100.00
967;BME280;56108;48.730;9.304;2023-04-15T00:41:38;96547.25;;;3.66;100.00
967;BME280;56108;48.730;9.304;2023-04-15T00:43:46;96542.41;;;3.58;100.00
967;BME280;56108;48.730;9.304;2023-04-15T00:45:55;96537.53;;;3.52;100.00
967;BME280;56108;48.730;9.304;2023-04-15T00:48:07;96544.00;;;3.47;100.00
967;BME280;56108;48.730;9.304;2023-04-15T00:50:18;96535.63;;;3.40;100.00
967;BME280;56108;48.730;9.304;2023-04-15T00:52:25;96537.56;;;3.36;100.00
967;BME280;56108;48.730;9.304;2023-04-15T00:54:34;96535.94;;;3.34;100.00
967;BME280;56108;48.730;9.304;2023-04-15T00:56:42;96536.88;;;3.33;100.00
967;BME280;56108;48.730;9.304;2023-04-15T00:58:51;96534.25;;;3.33;100.00
967;BME280;56108;48.730;9.304;2023-04-15T01:00:59;96535.44;;;3.43;100.00
967;BME280;56108;48.730;9.304;2023-04-15T01:03:08;96538.25;;;3.40;100.00
967;BME280;56108;48.730;9.304;2023-04-15T01:05:19;96537.16;;;3.28;100.00
967;BME280;56108;48.730;9.304;2023-04-15T01:07:27;96545.84;;;3.14;100.00
967;BME280;56108;48.730;9.304;2023-04-15T01:09:35;96541.19;;;3.20;100.00
967;BME280;56108;48.730;9.304;2023-04-15T01:11:44;96544.91;;;3.16;100.00
967;BME280;56108;48.730;9.304;2023-04-15T01:13:54;96545.91;;;3.13;100.00
967;BME280;56108;48.730;9.304;2023-04-15T01:16:04;96542.28;;;3.00;100.00
967;BME280;56108;48.730;9.304;2023-04-15T01:18:13;96540.88;;;2.94;100.00
967;BME280;56108;48.730;9.304;2023-04-15T01:20:24;96538.59;;;2.88;100.00
967;BME280;56108;48.730;9.304;2023-04-15T01:22:33;96541.72;;;2.95;100.00
967;BME280;56108;48.730;9.304;2023-04-15T01:24:50;96537.63;;;2.89;100.00
967;BME280;56108;48.730;9.304;2023-04-15T01:27:03;96535.50;;;2.96;100.00
967;BME280;56108;48.730;9.304;2023-04-15T01:29:13;96538.81;;;2.99;100.00
967;BME280;56108;48.730;9.304;2023-04-15T01:31:21;96541.25;;;3.02;100.00
967;BME280;56108;48.730;9.304;2023-04-15T01:33:29;96541.34;;;3.01;100.00
967;BME280;56108;48.730;9.304;2023-04-15T01:35:37;96541.72;;;2.95;100.00
967;BME280;56108;48.730;9.304;2023-04-15T01:37:48;96540.44;;;2.86;100.00
967;BME280;56108;48.730;9.304;2023-04-15T01:39:56;96534.84;;;2.76;100.00
967;BME280;56108;48.730;9.304;2023-04-15T01:42:07;96531.91;;;2.67;100.00
967;BME280;56108;48.730;9.304;2023-04-15T01:44:15;96533.41;;;2.71;100.00
967;BME280;56108;48.730;9.304;2023-04-15T01:46:23;96535.03;;;2.73;100.00
967;BME280;56108;48.730;9.304;2023-04-15T01:48:31;96533.34;;;2.72;100.00
967;BME280;56108;48.730;9.304;2023-04-15T01:50:40;96536.56;;;2.61;100.00
967;BME280;56108;48.730;9.304;2023-04-15T01:52:48;96536.38;;;2.65;100.00
967;BME280;56108;48.730;9.304;2023-04-15T01:54:56;96536.47;;;2.63;100.00
967;BME280;56108;48.730;9.304;2023-04-15T01:57:07;96539.25;;;2.60;100.00
967;BME280;56108;48.730;9.304;2023-04-15T01:59:16;96534.19;;;2.57;100.00
967;BME280;56108;48.730;9.304;2023-04-15T02:01:23;96527.72;;;2.47;100.00
967;BME280;56108;48.730;9.304;2023-04-15T02:03:32;96523.91;;;2.52;100.00
967;BME280;56108;48.730;9.304;2023-04-15T02:05:41;96526.78;;;2.48;100.00
967;BME280;56108;48.730;9.304;2023-04-15T02:07:49;96527.47;;;2.51;100.00
967;BME280;56108;48.730;9.304;2023-04-15T02:09:57;96519.06;;;2.60;100.00
967;BME280;56108;48.730;9.304;2023-04-15T02:12:08;96531.72;;;2.70;100.00
967;BME280;56108;48.730;9.304;2023-04-15T02:14:17;96536.81;;;2.73;100.00
967;BME280;56108;48.730;9.304;2023-04-15T02:16:25;96531.31;;;2.61;100.00
967;BME280;56108;48.730;9.304;2023-04-15T02:18:33;96521.44;;;2.49;100.00
967;BME280;56108;48.730;9.304;2023-04-15T02:20:41;96522.81;;;2.56;100.00
967;BME280;56108;48.730;9.304;2023-04-15T02:22:50;96527.88;;;2.44;100.00
967;BME280;56108;48.730;9.304;2023-04-15T02:24:59;96527.88;;;2.44;100.00
967;BME280;56108;48.730;9.304;2023-04-15T02:27:14;96520.94;;;2.43;100.00
967;BME280;56108;48.730;9.304;2023-04-15T02:29:23;96524.06;;;2.49;100.00
967;BME280;56108;48.730;9.304;2023-04-15T02:31:34;96529.56;;;2.60;100.00
967;BME280;56108;48.730;9.304;2023-04-15T02:33:50;96527.03;;;2.43;100.00
967;BME280;56108;48.730;9.304;2023-04-15T02:35:59;96527.19;;;2.40;100.00
967;BME280;56108;48.730;9.304;2023-04-15T02:38:07;96518.06;;;2.31;100.00
967;BME280;56108;48.730;9.304;2023-04-15T02:40:15;96526.19;;;2.43;100.00
967;BME280;56108;48.730;9.304;2023-04-15T02:42:25;96524.06;;;2.33;100.00
967;BME280;56108;48.730;9.304;2023-04-15T02:44:36;96516.50;;;2.27;100.00
967;BME280;56108;48.730;9.304;2023-04-15T02:46:44;96520.81;;;2.13;100.00
967;BME280;56108;48.730;9.304;2023-04-15T02:48:58;96519.59;;;2.02;100.00
967;BME280;56108;48.730;9.304;2023-04-15T02:51:11;96512.81;;;1.98;100.00
967;BME280;56108;48.730;9.304;2023-04-15T02:53:19;96515.50;;;1.97;100.00
967;BME280;56108;48.730;9.304;2023-04-15T02:55:28;96510.59;;;1.91;100.00
967;BME280;56108;48.730;9.304;2023-04-15T02:57:38;96505.59;;;1.86;100.00
967;BME280;56108;48.730;9.304;2023-04-15T02:59:47;96497.63;;;1.88;100.00
967;BME280;56108;48.730;9.304;2023-04-15T03:01:56;96508.34;;;2.00;100.00
967;BME280;56108;48.730;9.304;2023-04-15T03:04:05;96510.03;;;2.01;100.00
967;BME280;56108;48.730;9.304;2023-04-15T03:06:13;96508.66;;;1.94;100.00
967;BME280;56108;48.730;9.304;2023-04-15T03:08:22;96511.13;;;1.97;100.00
967;BME280;56108;48.730;9.304;2023-04-15T03:10:33;96518.94;;;1.99;100.00
967;BME280;56108;48.730;9.304;2023-04-15T03:12:44;96519.69;;;2.01;100.00
967;BME280;56108;48.730;9.304;2023-04-15T03:14:57;96531.53;;;2.08;100.00
967;BME280;56108;48.730;9.304;2023-04-15T03:17:12;96519.34;;;2.07;100.00
967;BME280;56108;48.730;9.304;2023-04-15T03:19:21;96521.81;;;2.10;100.00
967;BME280;56108;48.730;9.304;2023-04-15T03:21:29;96518.34;;;2.09;100.00
967;BME280;56108;48.730;9.304;2023-04-15T03:23:37;96520.47;;;2.19;100.00
967;BME280;56108;48.730;9.304;2023-04-15T03:25:46;96515.06;;;2.22;100.00
967;BME280;56108;48.730;9.304;2023-04-15T03:27:58;96516.28;;;2.32;100.00
967;BME280;56108;48.730;9.304;2023-04-15T03:30:07;96524.06;;;2.33;100.00
967;BME280;56108;48.730;9.304;2023-04-15T03:32:17;96517.44;;;2.26;100.00
967;BME280;56108;48.730;9.304;2023-04-15T03:34:25;96523.88;;;2.21;100.00
967;BME280;56108;48.730;9.304;2023-04-15T03:36:34;96523.78;;;2.22;100.00
967;BME280;56108;48.730;9.304;2023-04-15T03:38:42;96522.34;;;2.17;100.00
967;BME280;56108;48.730;9.304;2023-04-15T03:40:50;96522.91;;;2.06;100.00
967;BME280;56108;48.730;9.304;2023-04-15T03:43:01;96520.19;;;2.07;100.00
967;BME280;56108;48.730;9.304;2023-04-15T03:45:10;96524.59;;;2.07;100.00
967;BME280;56108;48.730;9.304;2023-04-15T03:47:18;96523.75;;;2.06;100.00
967;BME280;56108;48.730;9.304;2023-04-15T03:49:26;96528.25;;;2.04;100.00
967;BME280;56108;48.730;9.304;2023-04-15T03:51:34;96517.47;;;1.93;100.00
967;BME280;56108;48.730;9.304;2023-04-15T03:53:42;96518.56;;;1.89;100.00
967;BME280;56108;48.730;9.304;2023-04-15T03:55:51;96512.69;;;1.84;100.00
967;BME280;56108;48.730;9.304;2023-04-15T03:58:01;96517.34;;;1.79;100.00
967;BME280;56108;48.730;9.304;2023-04-15T04:00:10;96517.66;;;1.73;100.00
967;BME280;56108;48.730;9.304;2023-04-15T04:02:19;96519.16;;;1.77;100.00
967;BME280;56108;48.730;9.304;2023-04-15T04:04:28;96514.19;;;1.72;100.00
967;BME280;56108;48.730;9.304;2023-04-15T04:06:36;96523.28;;;1.65;100.00
967;BME280;56108;48.730;9.304;2023-04-15T04:08:44;96519.97;;;1.79;100.00
967;BME280;56108;48.730;9.304;2023-04-15T04:10:52;96525.66;;;1.70;100.00
967;BME280;56108;48.730;9.304;2023-04-15T04:13:03;96526.31;;;1.58;100.00
967;BME280;56108;48.730;9.304;2023-04-15T04:15:11;96516.81;;;1.55;100.00
967;BME280;56108;48.730;9.304;2023-04-15T04:17:19;96518.81;;;1.50;100.00
967;BME280;56108;48.730;9.304;2023-04-15T04:19:28;96519.84;;;1.47;100.00
967;BME280;56108;48.730;9.304;2023-04-15T04:21:36;96529.75;;;1.41;100.00
967;BME280;56108;48.730;9.304;2023-04-15T04:23:44;96525.69;;;1.52;100.00
967;BME280;56108;48.730;9.304;2023-04-15T04:25:53;96534.31;;;1.54;100.00
967;BME280;56108;48.730;9.304;2023-04-15T04:28:04;96533.00;;;1.46;100.00
967;BME280;56108;48.730;9.304;2023-04-15T04:30:13;96533.16;;;1.43;100.00
967;BME280;56108;48.730;9.304;2023-04-15T04:32:21;96526.00;;;1.46;100.00
967;BME280;56108;48.730;9.304;2023-04-15T04:34:29;96527.53;;;1.50;100.00
967;BME280;56108;48.730;9.304;2023-04-15T04:36:37;96542.19;;;1.54;100.00
967;BME280;56108;48.730;9.304;2023-04-15T04:38:46;96536.84;;;1.56;100.00
967;BME280;56108;48.730;9.304;2023-04-15T04:40:54;96538.09;;;1.32;100.00
967;BME280;56108;48.730;9.304;2023-04-15T04:43:04;96535.41;;;1.33;100.00
967;BME280;56108;48.730;9.304;2023-04-15T04:45:13;96537.25;;;1.31;100.00
967;BME280;56108;48.730;9.304;2023-04-15T04:47:21;96531.84;;;1.34;100.00
967;BME280;56108;48.730;9.304;2023-04-15T04:49:29;96538.78;;;1.35;100.00
967;BME280;56108;48.730;9.304;2023-04-15T04:51:37;96538.78;;;1.35;100.00
967;BME280;56108;48.730;9.304;2023-04-15T04:53:46;96539.72;;;1.34;100.00
967;BME280;56108;48.730;9.304;2023-04-15T04:55:54;96532.63;;;1.36;100.00
967;BME280;56108;48.730;9.304;2023-04-15T04:58:05;96537.25;;;1.48;100.00
967;BME280;56108;48.730;9.304;2023-04-15T05:00:16;96541.56;;;1.49;100.00
967;BME280;56108;48.730;9.304;2023-04-15T05:02:24;96542.81;;;1.42;100.00
967;BME280;56108;48.730;9.304;2023-04-15T05:04:32;96544.41;;;1.27;100.00
967;BME280;56108;48.730;9.304;2023-04-15T05:06:41;96538.50;;;1.41;100.00
967;BME280;56108;48.730;9.304;2023-04-15T05:08:49;96544.72;;;1.56;100.00
967;BME280;56108;48.730;9.304;2023-04-15T05:10:57;96546.03;;;1.65;100.00
967;BME280;56108;48.730;9.304;2023-04-15T05:13:08;96552.00;;;1.68;100.00
967;BME280;56108;48.730;9.304;2023-04-15T05:15:16;96549.69;;;1.62;100.00
967;BME280;56108;48.730;9.304;2023-04-15T05:17:25;96555.22;;;1.73;100.00
967;BME280;56108;48.730;9.304;2023-04-15T05:19:35;96557.66;;;1.76;100.00
967;BME280;56108;48.730;9.304;2023-04-15T05:21:43;96563.00;;;1.75;100.00
967;BME280;56108;48.730;9.304;2023-04-15T05:23:51;96569.47;;;1.85;100.00
967;BME280;56108;48.730;9.304;2023-04-15T05:26:00;96566.91;;;2.01;100.00
967;BME280;56108;48.730;9.304;2023-04-15T05:28:10;96568.47;;;1.88;100.00
967;BME280;56108;48.730;9.304;2023-04-15T05:30:19;96568.59;;;2.02;100.00
967;BME280;56108;48.730;9.304;2023-04-15T05:32:27;96572.16;;;2.34;100.00
967;BME280;56108;48.730;9.304;2023-04-15T05:34:35;96579.94;;;2.20;100.00
967;BME280;56108;48.730;9.304;2023-04-15T05:36:43;96579.66;;;2.24;100.00
967;BME280;56108;48.730;9.304;2023-04-15T05:38:51;96575.13;;;2.44;100.00
967;BME280;56108;48.730;9.304;2023-04-15T05:40:59;96577.81;;;2.75;100.00
967;BME280;56108;48.730;9.304;2023-04-15T05:43:10;96583.88;;;3.39;100.00
967;BME280;56108;48.730;9.304;2023-04-15T05:45:18;96582.97;;;4.43;100.00
967;BME280;56108;48.730;9.304;2023-04-15T05:47:26;96587.31;;;4.72;100.00
967;BME280;56108;48.730;9.304;2023-04-15T05:49:34;96591.63;;;4.74;100.00
967;BME280;56108;48.730;9.304;2023-04-15T05:51:42;96595.00;;;5.31;96.17
967;BME280;56108;48.730;9.304;2023-04-15T05:53:51;96595.88;;;5.71;90.62
967;BME280;56108;48.730;9.304;2023-04-15T05:55:58;96595.78;;;6.89;84.78
967;BME280;56108;48.730;9.304;2023-04-15T05:58:06;96612.81;;;7.82;78.12
967;BME280;56108;48.730;9.304;2023-04-15T06:00:18;96614.69;;;7.69;72.35
967;BME280;56108;48.730;9.304;2023-04-15T06:02:26;96606.28;;;7.51;73.40
967;BME280;56108;48.730;9.304;2023-04-15T06:04:36;96621.47;;;9.67;66.08
967;BME280;56108;48.730;9.304;2023-04-15T06:06:44;96635.13;;;9.62;62.27
967;BME280;56108;48.730;9.304;2023-04-15T06:08:52;96651.69;;;10.93;57.10
967;BME280;56108;48.730;9.304;2023-04-15T06:11:01;96650.47;;;11.28;56.40
967;BME280;56108;48.730;9.304;2023-04-15T06:13:09;96684.38;;;12.84;50.91
967;BME280;56108;48.730;9.304;2023-04-15T06:15:20;96698.97;;;14.10;47.56
967;BME280;56108;48.730;9.304;2023-04-15T06:17:28;96712.88;;;14.14;45.67
967;BME280;56108;48.730;9.304;2023-04-15T06:19:36;96714.53;;;13.97;45.47
967;BME280;56108;48.730;9.304;2023-04-15T06:21:44;96699.53;;;12.93;48.12
967;BME280;56108;48.730;9.304;2023-04-15T06:23:52;96689.94;;;11.84;50.61
967;BME280;56108;48.730;9.304;2023-04-15T06:26:01;96679.88;;;10.95;52.33
967;BME280;56108;48.730;9.304;2023-04-15T06:28:08;96657.44;;;9.60;56.99
967;BME280;56108;48.730;9.304;2023-04-15T06:30:17;96641.41;;;9.39;60.10
967;BME280;56108;48.730;9.304;2023-04-15T06:32:31;96645.19;;;9.80;60.35
967;BME280;56108;48.730;9.304;2023-04-15T06:34:39;96681.84;;;11.55;52.47
967;BME280;56108;48.730;9.304;2023-04-15T06:36:48;96663.19;;;10.19;55.50
967;BME280;56108;48.730;9.304;2023-04-15T06:38:59;96659.81;;;9.85;57.34
967;BME280;56108;48.730;9.304;2023-04-15T06:41:08;96667.69;;;10.51;56.78
967;BME280;56108;48.730;9.304;2023-04-15T06:43:16;96676.94;;;10.36;55.09
967;BME280;56108;48.730;9.304;2023-04-15T06:45:24;96666.44;;;9.91;57.06
967;BME280;56108;48.730;9.304;2023-04-15T06:47:34;96670.50;;;10.06;56.53
967;BME280;56108;48.730;9.304;2023-04-15T06:49:44;96674.66;;;10.31;56.45
967;BME280;56108;48.730;9.304;2023-04-15T06:51:52;96690.63;;;11.45;53.27
967;BME280;56108;48.730;9.304;2023-04-15T06:54:00;96702.81;;;12.28;51.00
967;BME280;56108;48.730;9.304;2023-04-15T06:56:09;96688.75;;;10.85;53.46
967;BME280;56108;48.730;9.304;2023-04-15T06:58:18;96675.94;;;11.20;54.49
967;BME280;56108;48.730;9.304;2023-04-15T07:00:25;96686.59;;;11.91;52.72
967;BME280;56108;48.730;9.304;2023-04-15T07:02:40;96681.81;;;11.45;53.38
967;BME280;56108;48.730;9.304;2023-04-15T07:04:48;96683.03;;;11.10;53.29
967;BME280;56108;48.730;9.304;2023-04-15T07:06:56;96670.69;;;10.26;55.77
967;BME280;56108;48.730;9.304;2023-04-15T07:09:06;96655.28;;;9.54;58.37
967;BME280;56108;48.730;9.304;2023-04-15T07:11:14;96648.69;;;9.26;61.06
967;BME280;56108;48.730;9.304;2023-04-15T07:13:22;96646.16;;;9.24;62.22
967;BME280;56108;48.730;9.304;2023-04-15T07:15:30;96643.25;;;9.16;61.93
967;BME280;56108;48.730;9.304;2023-04-15T07:17:41;96633.72;;;8.80;63.85
967;BME280;56108;48.730;9.304;2023-04-15T07:19:49;96631.53;;;8.62;66.46
967;BME280;56108;48.730;9.304;2023-04-15T07:21:58;96619.81;;;7.83;70.57
967;BME280;56108;48.730;9.304;2023-04-15T07:24:06;96611.94;;;7.10;76.42
967;BME280;56108;48.730;9.304;2023-04-15T07:26:14;96611.41;;;7.42;77.48
967;BME280;56108;48.730;9.304;2023-04-15T07:28:22;96606.91;;;6.69;80.42
967;BME280;56108;48.730;9.304;2023-04-15T07:30:31;96606.97;;;6.04;83.75
967;BME280;56108;48.730;9.304;2023-04-15T07:32:42;96604.22;;;5.92;86.91
967;BME280;56108;48.730;9.304;2023-04-15T07:34:50;96598.84;;;6.58;86.77
967;BME280;56108;48.730;9.304;2023-04-15T07:36:58;96605.09;;;7.31;80.55
967;BME280;56108;48.730;9.304;2023-04-15T07:39:07;96610.41;;;7.79;78.40
967;BME280;56108;48.730;9.304;2023-04-15T07:41:16;96615.97;;;8.80;71.87
967;BME280;56108;48.730;9.304;2023-04-15T07:43:24;96620.25;;;9.60;67.64
967;BME280;56108;48.730;9.304;2023-04-15T07:45:32;96625.09;;;9.66;68.72
967;BME280;56108;48.730;9.304;2023-04-15T07:47:43;96638.59;;;10.06;63.14
967;BME280;56108;48.730;9.304;2023-04-15T07:49:51;96641.44;;;10.26;62.00
967;BME280;56108;48.730;9.304;2023-04-15T07:51:59;96639.78;;;10.13;61.55
967;BME280;56108;48.730;9.304;2023-04-15T07:54:09;96645.16;;;10.34;61.29
967;BME280;56108;48.730;9.304;2023-04-15T07:56:18;96636.19;;;10.03;61.82
967;BME280;56108;48.730;9.304;2023-04-15T07:58:26;96617.56;;;8.94;67.44
967;BME280;56108;48.730;9.304;2023-04-15T08:00:34;96620.78;;;9.43;67.03
967;BME280;56108;48.730;9.304;2023-04-15T08:02:45;96631.41;;;9.97;64.63
967;BME280;56108;48.730;9.304;2023-04-15T08:04:54;96615.59;;;9.41;66.65
967;BME280;56108;48.730;9.304;2023-04-15T08:07:02;96620.66;;;9.55;66.83
967;BME280;56108;48.730;9.304;2023-04-15T08:09:11;96624.13;;;9.67;65.00
967;BME280;56108;48.730;9.304;2023-04-15T08:11:19;96622.91;;;10.35;64.91
967;BME280;56108;48.730;9.304;2023-04-15T08:13:27;96616.56;;;9.29;66.01
967;BME280;56108;48.730;9.304;2023-04-15T08:15:35;96605.22;;;9.38;67.80
967;BME280;56108;48.730;9.304;2023-04-15T08:17:46;96615.19;;;10.00;67.04
967;BME280;56108;48.730;9.304;2023-04-15T08:19:54;96606.22;;;9.69;66.67
967;BME280;56108;48.730;9.304;2023-04-15T08:22:02;96596.84;;;10.50;67.66
967;BME280;56108;48.730;9.304;2023-04-15T08:24:19;96616.53;;;10.27;65.54
967;BME280;56108;48.730;9.304;2023-04-15T08:26:27;96607.47;;;9.54;67.93
967;BME280;56108;48.730;9.304;2023-04-15T08:28:36;96614.06;;;9.82;69.20
967;BME280;56108;48.730;9.304;2023-04-15T08:30:45;96611.03;;;9.75;69.02
967;BME280;56108;48.730;9.304;2023-04-15T08:32:55;96609.25;;;9.64;68.46
967;BME280;56108;48.730;9.304;2023-04-15T08:35:04;96612.44;;;9.90;67.64
967;BME280;56108;48.730;9.304;2023-04-15T08:37:13;96615.09;;;9.90;66.10
967;BME280;56108;48.730;9.304;2023-04-15T08:39:21;96611.75;;;10.09;67.91
967;BME280;56108;48.730;9.304;2023-04-15T08:41:33;96611.59;;;9.90;66.24
967;BME280;56108;48.730;9.304;2023-04-15T08:43:51;96615.03;;;9.70;66.62
967;BME280;56108;48.730;9.304;2023-04-15T08:46:00;96615.47;;;10.18;67.99
967;BME280;56108;48.730;9.304;2023-04-15T08:48:14;96607.78;;;10.57;66.76
967;BME280;56108;48.730;9.304;2023-04-15T08:50:24;96614.47;;;10.30;64.50
967;BME280;56108;48.730;9.304;2023-04-15T08:52:33;96609.41;;;10.69;64.99
967;BME280;56108;48.730;9.304;2023-04-15T08:54:41;96617.19;;;11.12;62.26
967;BME280;56108;48.730;9.304;2023-04-15T08:56:49;96632.16;;;11.54;57.56
967;BME280;56108;48.730;9.304;2023-04-15T08:58:58;96638.38;;;11.64;55.90
967;BME280;56108;48.730;9.304;2023-04-15T09:01:06;96633.34;;;11.70;57.08
967;BME280;56108;48.730;9.304;2023-04-15T09:03:17;96641.84;;;12.14;55.77
967;BME280;56108;48.730;9.304;2023-04-15T09:05:26;96651.66;;;12.52;53.97
967;BME280;56108;48.730;9.304;2023-04-15T09:07:37;96640.13;;;12.71;53.92
967;BME280;56108;48.730;9.304;2023-04-15T09:09:47;96643.09;;;13.15;53.98
967;BME280;56108;48.730;9.304;2023-04-15T09:11:55;96650.69;;;13.57;52.17
967;BME280;56108;48.730;9.304;2023-04-15T09:14:03;96660.56;;;13.84;50.89
967;BME280;56108;48.730;9.304;2023-04-15T09:16:12;96670.56;;;14.27;49.49
967;BME280;56108;48.730;9.304;2023-04-15T09:18:30;96670.09;;;14.85;49.01
967;BME280;56108;48.730;9.304;2023-04-15T09:20:39;96678.63;;;15.07;47.81
967;BME280;56108;48.730;9.304;2023-04-15T09:22:48;96677.38;;;15.79;47.08
967;BME280;56108;48.730;9.304;2023-04-15T09:24:57;96701.06;;;15.32;46.08
967;BME280;56108;48.730;9.304;2023-04-15T09:27:05;96703.59;;;15.94;44.82
967;BME280;56108;48.730;9.304;2023-04-15T09:29:14;96701.47;;;17.05;44.12
967;BME280;56108;48.730;9.304;2023-04-15T09:31:28;96717.69;;;18.16;41.05
967;BME280;56108;48.730;9.304;2023-04-15T09:33:53;96731.38;;;18.37;39.15
967;BME280;56108;48.730;9.304;2023-04-15T09:36:03;96724.66;;;18.02;40.68
967;BME280;56108;48.730;9.304;2023-04-15T09:38:12;96726.56;;;18.87;38.85
967;BME280;56108;48.730;9.304;2023-04-15T09:40:33;96738.72;;;17.57;37.51
967;BME280;56108;48.730;9.304;2023-04-15T09:42:54;96723.16;;;18.70;39.47
967;BME280;56108;48.730;9.304;2023-04-15T09:45:09;96735.84;;;18.53;38.50
967;BME280;56108;48.730;9.304;2023-04-15T09:47:27;96724.78;;;18.17;39.76
967;BME280;56108;48.730;9.304;2023-04-15T09:49:54;96718.50;;;18.24;40.36
967;BME280;56108;48.730;9.304;2023-04-15T09:52:03;96720.38;;;18.16;41.94
967;BME280;56108;48.730;9.304;2023-04-15T09:54:11;96723.31;;;18.37;40.06
967;BME280;56108;48.730;9.304;2023-04-15T09:56:21;96728.13;;;18.19;40.28
967;BME280;56108;48.730;9.304;2023-04-15T09:58:31;96737.47;;;18.31;38.72
967;BME280;56108;48.730;9.304;2023-04-15T10:00:41;96716.41;;;16.91;43.52
967;BME280;56108;48.730;9.304;2023-04-15T10:02:49;96712.13;;;16.48;42.15
967;BME280;56108;48.730;9.304;2023-04-15T10:05:01;96719.88;;;16.51;42.83
967;BME280;56108;48.730;9.304;2023-04-15T10:07:10;96717.91;;;17.34;41.68
967;BME280;56108;48.730;9.304;2023-04-15T10:09:19;96717.19;;;16.00;42.97
967;BME280;56108;48.730;9.304;2023-04-15T10:11:28;96718.22;;;16.07;42.93
967;BME280;56108;48.730;9.304;2023-04-15T10:13:37;96714.09;;;15.53;44.38
967;BME280;56108;48.730;9.304;2023-04-15T10:15:50;96712.34;;;14.74;45.68
967;BME280;56108;48.730;9.304;2023-04-15T10:17:59;96699.72;;;14.84;46.35
967;BME280;56108;48.730;9.304;2023-04-15T10:20:12;96705.34;;;14.27;47.62
967;BME280;56108;48.730;9.304;2023-04-15T10:22:22;96703.97;;;14.23;47.01
967;BME280;56108;48.730;9.304;2023-04-15T10:24:32;96697.50;;;14.79;48.10
967;BME280;56108;48.730;9.304;2023-04-15T10:26:41;96715.41;;;15.23;44.69
967;BME280;56108;48.730;9.304;2023-04-15T10:28:50;96719.09;;;15.74;44.76
967;BME280;56108;48.730;9.304;2023-04-15T10:31:01;96722.59;;;16.75;42.63
967;BME280;56108;48.730;9.304;2023-04-15T10:33:12;96733.41;;;16.91;41.39
967;BME280;56108;48.730;9.304;2023-04-15T10:35:23;96743.59;;;15.53;40.51
967;BME280;56108;48.730;9.304;2023-04-15T10:37:34;96727.25;;;15.64;42.46
967;BME280;56108;48.730;9.304;2023-04-15T10:39:43;96720.81;;;16.33;43.25
967;BME280;56108;48.730;9.304;2023-04-15T10:42:05;96733.41;;;16.33;42.38
967;BME280;56108;48.730;9.304;2023-04-15T10:44:13;96733.09;;;16.36;42.64
967;BME280;56108;48.730;9.304;2023-04-15T10:46:23;96741.75;;;16.13;41.78
967;BME280;56108;48.730;9.304;2023-04-15T10:48:46;96736.94;;;16.25;42.11
967;BME280;56108;48.730;9.304;2023-04-15T10:50:59;96743.06;;;16.09;42.34
967;BME280;56108;48.730;9.304;2023-04-15T10:53:09;96742.03;;;16.53;43.40
967;BME280;56108;48.730;9.304;2023-04-15T10:55:19;96744.81;;;17.02;42.20
967;BME280;56108;48.730;9.304;2023-04-15T10:57:33;96748.50;;;17.41;42.16
967;BME280;56108;48.730;9.304;2023-04-15T11:00:00;96748.47;;;17.58;40.77
967;BME280;56108;48.730;9.304;2023-04-15T11:02:12;96751.00;;;17.51;39.69
967;BME280;56108;48.730;9.304;2023-04-15T11:04:52;96756.09;;;17.13;41.19
967;BME280;56108;48.730;9.304;2023-04-15T11:07:07;96753.53;;;17.36;40.85
967;BME280;56108;48.730;9.304;2023-04-15T11:09:30;96756.66;;;16.58;40.92
967;BME280;56108;48.730;9.304;2023-04-15T11:12:06;96742.19;;;15.93;43.92
967;BME280;56108;48.730;9.304;2023-04-15T11:14:15;96741.44;;;15.82;43.94
967;BME280;56108;48.730;9.304;2023-04-15T11:16:23;96739.44;;;15.58;41.94
967;BME280;56108;48.730;9.304;2023-04-15T11:18:33;96741.75;;;14.20;43.58
967;BME280;56108;48.730;9.304;2023-04-15T11:20:43;96738.59;;;14.52;44.74
967;BME280;56108;48.730;9.304;2023-04-15T11:22:55;96735.72;;;14.08;45.14
967;BME280;56108;48.730;9.304;2023-04-15T11:25:22;96741.50;;;13.86;44.66
967;BME280;56108;48.730;9.304;2023-04-15T11:27:30;96735.53;;;14.47;44.80
967;BME280;56108;48.730;9.304;2023-04-15T11:29:38;96737.47;;;14.27;43.72
967;BME280;56108;48.730;9.304;2023-04-15T11:31:46;96735.13;;;14.42;45.49
967;BME280;56108;48.730;9.304;2023-04-15T11:33:56;96740.91;;;14.38;44.83
967;BME280;56108;48.730;9.304;2023-04-15T11:36:07;96745.66;;;14.44;43.97
967;BME280;56108;48.730;9.304;2023-04-15T11:38:21;96724.38;;;14.70;45.82
967;BME280;56108;48.730;9.304;2023-04-15T11:40:29;96733.38;;;15.04;45.96
967;BME280;56108;48.730;9.304;2023-04-15T11:42:37;96747.16;;;14.92;43.02
967;BME280;56108;48.730;9.304;2023-04-15T11:45:05;96740.56;;;15.04;44.89
967;BME280;56108;48.730;9.304;2023-04-15T11:47:23;96735.53;;;15.53;45.93